createdAt,value
2018-07-21T00:01:49.558Z,6.03
2018-07-21T00:04:17.414Z,6.83
2018-07-21T00:06:45.266Z,6.97
2018-07-21T00:09:13.239Z,6.20
2018-07-21T00:11:42.139Z,6.17
2018-07-21T00:14:10.052Z,5.50
2018-07-21T00:16:37.968Z,6.97
2018-07-21T00:19:06.139Z,6.23
2018-07-21T00:21:33.937Z,8.93
2018-07-21T00:24:01.864Z,6.77
2018-07-21T00:26:35.221Z,6.80
2018-07-21T00:29:03.131Z,6.40
2018-07-21T00:31:31.493Z,6.90
2018-07-21T00:33:59.421Z,6.23
2018-07-21T00:36:27.393Z,7.83
2018-07-21T00:38:55.462Z,7.03
2018-07-21T00:41:23.254Z,6.90
2018-07-21T00:43:51.298Z,6.77
2018-07-21T00:46:19.677Z,7.97
2018-07-21T00:48:47.561Z,6.70
2018-07-21T00:51:15.453Z,6.87
2018-07-21T00:53:43.327Z,6.73
2018-07-21T00:56:11.221Z,6.47
2018-07-21T00:58:39.097Z,6.60
2018-07-21T01:01:07.187Z,6.23
2018-07-21T01:03:35.040Z,7.03
2018-07-21T01:06:03.102Z,6.47
2018-07-21T01:08:30.890Z,6.23
2018-07-21T01:10:58.964Z,6.30
2018-07-21T01:13:26.847Z,5.83
2018-07-21T01:15:54.909Z,6.10
2018-07-21T01:21:20.788Z,6.40
2018-07-21T01:23:48.655Z,6.87
2018-07-21T01:26:16.581Z,6.43
2018-07-21T01:28:44.468Z,6.47
2018-07-21T01:31:12.514Z,8.30
2018-07-21T01:33:40.384Z,8.43
2018-07-21T01:36:08.254Z,6.00
2018-07-21T01:38:36.131Z,6.10
2018-07-21T01:41:04.004Z,7.03
2018-07-21T01:43:32.102Z,7.83
2018-07-21T01:45:59.945Z,6.13
2018-07-21T01:48:27.693Z,6.40
2018-07-21T01:50:55.838Z,7.80
2018-07-21T01:53:23.742Z,7.20
2018-07-21T01:55:51.752Z,6.07
2018-07-21T01:58:19.669Z,6.70
2018-07-21T02:00:47.645Z,6.07
2018-07-21T02:03:15.494Z,7.80
2018-07-21T02:05:43.342Z,6.73
2018-07-21T02:08:11.263Z,5.73
2018-07-21T02:10:39.105Z,7.40
2018-07-21T02:13:06.858Z,7.10
2018-07-21T02:15:34.653Z,6.47
2018-07-21T02:18:02.457Z,6.80
2018-07-21T02:20:30.353Z,6.40
2018-07-21T02:22:58.268Z,6.47
2018-07-21T02:25:25.981Z,6.43
2018-07-21T02:27:53.886Z,7.67
2018-07-21T02:30:22.091Z,6.93
2018-07-21T02:32:49.936Z,6.13
2018-07-21T02:35:17.721Z,6.87
2018-07-21T02:37:45.678Z,6.37
2018-07-21T02:40:13.573Z,6.30
2018-07-21T02:42:41.353Z,8.77
2018-07-21T02:45:09.408Z,6.57
2018-07-21T02:47:37.409Z,6.90
2018-07-21T02:50:05.239Z,6.40
2018-07-21T02:52:32.959Z,7.50
2018-07-21T02:55:00.836Z,7.13
2018-07-21T02:57:28.859Z,8.00
2018-07-21T02:59:56.838Z,7.80
2018-07-21T03:02:24.816Z,7.50
2018-07-21T03:04:53.089Z,7.93
2018-07-21T03:07:21.146Z,7.50
2018-07-21T03:09:48.998Z,7.63
2018-07-21T03:12:16.816Z,7.20
2018-07-21T03:14:44.689Z,6.37
2018-07-21T03:17:12.563Z,6.30
2018-07-21T03:19:40.550Z,7.83
2018-07-21T03:22:08.419Z,7.47
2018-07-21T03:24:36.268Z,6.50
2018-07-21T03:27:04.141Z,7.73
2018-07-21T03:29:32.477Z,7.30
2018-07-21T03:32:00.306Z,6.53
2018-07-21T03:34:28.813Z,6.20
2018-07-21T03:36:56.692Z,8.33
2018-07-21T03:39:24.674Z,6.30
2018-07-21T03:41:52.867Z,6.40
2018-07-21T03:44:21.154Z,6.83
2018-07-21T03:46:48.966Z,7.00
2018-07-21T03:49:16.868Z,6.97
2018-07-21T03:51:44.850Z,6.50
2018-07-21T03:54:12.709Z,7.20
2018-07-21T03:56:40.563Z,6.73
2018-07-21T03:59:08.525Z,7.60
2018-07-21T04:01:36.461Z,6.27
2018-07-21T04:04:04.301Z,7.07
2018-07-21T04:06:32.201Z,6.37
2018-07-21T04:09:00.077Z,6.23
2018-07-21T04:11:28.585Z,7.83
2018-07-21T04:13:56.802Z,6.80
2018-07-21T04:16:24.771Z,7.57
2018-07-21T04:18:53.561Z,7.00
2018-07-21T04:21:21.819Z,10.10
2018-07-21T04:23:49.979Z,7.60
2018-07-21T04:26:17.900Z,6.00
2018-07-21T04:28:45.780Z,7.13
2018-07-21T04:31:13.677Z,7.17
2018-07-21T04:33:41.556Z,6.27
2018-07-21T04:36:09.515Z,7.10
2018-07-21T04:38:37.548Z,6.37
2018-07-21T04:41:05.630Z,7.40
2018-07-21T04:43:33.587Z,8.00
2018-07-21T04:46:01.502Z,7.00
2018-07-21T04:48:29.373Z,6.17
2018-07-21T04:50:57.260Z,7.37
2018-07-21T04:53:25.191Z,8.93
2018-07-21T04:55:53.296Z,6.80
2018-07-21T04:58:21.453Z,7.67
2018-07-21T05:00:49.223Z,7.63
2018-07-21T05:03:17.092Z,7.57
2018-07-21T05:05:44.766Z,7.03
2018-07-21T05:08:12.636Z,7.00
2018-07-21T05:10:40.486Z,7.23
2018-07-21T05:13:08.448Z,7.47
2018-07-21T05:15:36.462Z,7.33
2018-07-21T05:18:04.381Z,7.43
2018-07-21T05:20:32.231Z,7.73
2018-07-21T05:23:00.188Z,6.40
2018-07-21T05:25:28.092Z,7.13
2018-07-21T05:28:01.542Z,6.40
2018-07-21T05:30:30.261Z,8.57
2018-07-21T05:32:58.132Z,6.80
2018-07-21T05:35:26.089Z,6.80
2018-07-21T05:37:54.000Z,6.97
2018-07-21T05:40:22.130Z,6.30
2018-07-21T05:42:50.114Z,6.47
2018-07-21T05:45:18.158Z,6.40
2018-07-21T05:47:46.179Z,6.23
2018-07-21T05:50:14.071Z,6.20
2018-07-21T05:52:41.738Z,7.20
2018-07-21T05:55:09.638Z,5.90
2018-07-21T05:57:37.517Z,5.97
2018-07-21T06:00:06.985Z,9.07
2018-07-21T06:02:34.894Z,6.43
2018-07-21T06:05:02.745Z,5.67
2018-07-21T06:07:30.649Z,5.93
2018-07-21T06:09:58.692Z,6.43
2018-07-21T06:12:26.623Z,5.80
2018-07-21T06:14:54.470Z,7.73
2018-07-21T06:17:22.333Z,6.00
2018-07-21T06:19:50.725Z,6.97
2018-07-21T06:22:18.545Z,6.00
2018-07-21T06:24:46.410Z,6.93
2018-07-21T06:27:14.330Z,6.10
2018-07-21T06:29:42.189Z,6.63
2018-07-21T06:32:10.524Z,6.70
2018-07-21T06:34:38.496Z,5.80
2018-07-21T06:37:06.472Z,8.50
2018-07-21T06:39:34.357Z,5.77
2018-07-21T06:42:02.293Z,5.80
2018-07-21T06:44:30.649Z,6.60
2018-07-21T06:46:58.428Z,8.70
2018-07-21T06:49:27.409Z,6.73
2018-07-21T06:51:55.202Z,7.20
2018-07-21T06:54:23.121Z,6.20
2018-07-21T06:56:51.086Z,6.83
2018-07-21T06:59:19.129Z,9.90
2018-07-21T07:01:47.034Z,8.40
2018-07-21T07:04:14.946Z,7.37
2018-07-21T07:06:43.015Z,7.83
2018-07-21T07:09:11.554Z,7.93
2018-07-21T07:11:39.470Z,7.17
2018-07-21T07:14:07.392Z,10.50
2018-07-21T07:16:37.370Z,8.03
2018-07-21T07:19:05.199Z,7.70
2018-07-21T07:21:33.012Z,8.90
2018-07-21T07:24:00.873Z,7.80
2018-07-21T07:26:28.788Z,7.93
2018-07-21T07:28:56.781Z,8.13
2018-07-21T07:31:24.868Z,8.70
2018-07-21T07:33:53.164Z,9.47
2018-07-21T07:36:24.557Z,9.13
2018-07-21T07:38:53.313Z,8.87
2018-07-21T07:41:22.228Z,11.03
2018-07-21T07:43:50.965Z,9.70
2018-07-21T07:46:19.739Z,13.63
2018-07-21T07:48:47.543Z,12.23
2018-07-21T07:51:15.365Z,10.63
2018-07-21T07:53:43.222Z,10.33
2018-07-21T07:56:11.171Z,14.87
2018-07-21T07:58:39.123Z,12.13
2018-07-21T08:01:07.222Z,12.67
2018-07-21T08:03:35.136Z,12.37
2018-07-21T08:06:03.031Z,12.03
2018-07-21T08:08:31.938Z,11.90
2018-07-21T08:10:59.850Z,15.20
2018-07-21T08:13:27.716Z,12.13
2018-07-21T08:15:56.070Z,11.87
2018-07-21T08:18:24.094Z,13.13
2018-07-21T08:20:52.097Z,12.93
2018-07-21T08:23:20.217Z,13.90
2018-07-21T08:25:48.129Z,12.77
2018-07-21T08:28:16.042Z,20.43
2018-07-21T08:30:43.911Z,12.07
2018-07-21T08:33:11.905Z,11.83
2018-07-21T08:35:39.832Z,15.17
2018-07-21T08:38:20.779Z,12.00
2018-07-21T08:40:49.873Z,12.73
2018-07-21T08:43:22.589Z,13.27
2018-07-21T08:45:52.652Z,11.77
2018-07-21T08:48:20.666Z,14.77
2018-07-21T08:50:48.672Z,14.83
2018-07-21T08:53:30.208Z,16.37
2018-07-21T08:55:58.275Z,15.33
2018-07-21T08:58:28.198Z,15.17
2018-07-21T09:00:56.449Z,15.03
2018-07-21T09:03:24.545Z,15.70
2018-07-21T09:05:52.728Z,13.83
2018-07-21T09:08:20.934Z,15.77
2018-07-21T09:10:48.900Z,16.73
2018-07-21T09:13:16.705Z,17.13
2018-07-21T09:15:44.728Z,15.33
2018-07-21T09:18:12.583Z,16.87
2018-07-21T09:20:40.488Z,17.47
2018-07-21T09:23:08.366Z,19.67
2018-07-21T09:25:36.268Z,16.67
2018-07-21T09:28:04.172Z,16.07
2018-07-21T09:30:32.125Z,14.70
2018-07-21T09:33:00.196Z,17.93
2018-07-21T09:35:29.665Z,17.57
2018-07-21T09:38:15.190Z,18.33
2018-07-21T09:40:43.083Z,17.53
2018-07-21T09:43:10.971Z,17.67
2018-07-21T09:45:38.823Z,15.37
2018-07-21T09:48:07.627Z,15.20
2018-07-21T09:50:35.700Z,16.20
2018-07-21T09:53:03.479Z,15.50
2018-07-21T09:55:31.317Z,19.83
2018-07-21T09:57:59.174Z,17.57
2018-07-21T10:01:04.577Z,16.40
2018-07-21T10:03:33.870Z,17.80
2018-07-21T10:06:02.152Z,18.00
2018-07-21T10:08:30.344Z,18.43
2018-07-21T10:10:58.304Z,17.20
2018-07-21T10:13:27.453Z,20.30
2018-07-21T10:15:55.452Z,23.30
2018-07-21T10:18:23.872Z,21.53
2018-07-21T10:20:53.008Z,19.40
2018-07-21T10:23:22.235Z,20.93
2018-07-21T10:25:55.866Z,18.93
2018-07-21T10:28:29.724Z,20.73
2018-07-21T10:30:57.623Z,19.30
2018-07-21T10:33:25.685Z,18.87
2018-07-21T10:35:53.655Z,17.10
2018-07-21T10:38:21.797Z,18.40
2018-07-21T10:40:51.007Z,18.27
2018-07-21T10:43:18.920Z,15.00
2018-07-21T10:45:47.320Z,15.23
2018-07-21T10:48:15.316Z,18.47
2018-07-21T10:50:43.117Z,16.80
2018-07-21T10:53:10.984Z,17.07
2018-07-21T10:55:38.755Z,15.90
2018-07-21T10:58:06.706Z,13.10
2018-07-21T11:00:55.832Z,14.77
2018-07-21T11:03:23.818Z,14.53
2018-07-21T11:05:51.733Z,13.53
2018-07-21T11:08:19.934Z,16.10
2018-07-21T11:10:47.837Z,13.57
2018-07-21T11:13:27.649Z,10.40
2018-07-21T11:15:55.525Z,10.87
2018-07-21T11:18:23.422Z,13.63
2018-07-21T11:20:51.413Z,12.57
2018-07-21T11:23:19.380Z,9.77
2018-07-21T11:25:47.311Z,12.73
2018-07-21T11:28:14.946Z,14.30
2018-07-21T11:30:42.816Z,13.00
2018-07-21T11:33:16.193Z,14.00
2018-07-21T11:35:44.260Z,14.20
2018-07-21T11:38:12.216Z,13.73
2018-07-21T11:40:40.673Z,11.43
2018-07-21T11:43:09.024Z,14.90
2018-07-21T11:45:38.556Z,11.97
2018-07-21T11:48:10.683Z,15.77
2018-07-21T11:50:38.675Z,13.37
2018-07-21T11:53:06.719Z,13.47
2018-07-21T11:55:34.648Z,14.53
2018-07-21T11:58:02.683Z,13.20
2018-07-21T12:00:53.079Z,12.43
2018-07-21T12:03:21.341Z,12.93
2018-07-21T12:05:49.098Z,10.13
2018-07-21T12:08:16.893Z,9.17
2018-07-21T12:10:44.830Z,9.70
2018-07-21T12:13:12.734Z,16.00
2018-07-21T12:15:42.149Z,15.13
2018-07-21T12:18:10.157Z,16.70
2018-07-21T12:20:38.169Z,16.10
2018-07-21T12:23:06.235Z,17.00
2018-07-21T12:25:34.048Z,12.97
2018-07-21T12:28:01.766Z,16.33
2018-07-21T12:30:29.781Z,12.57
2018-07-21T12:32:57.629Z,16.87
2018-07-21T12:35:25.613Z,15.23
2018-07-21T12:37:54.017Z,14.10
2018-07-21T12:40:22.200Z,13.73
2018-07-21T12:42:53.998Z,14.40
2018-07-21T12:45:21.830Z,15.80
2018-07-21T12:47:50.109Z,14.17
2018-07-21T12:50:18.021Z,16.20
2018-07-21T12:52:46.087Z,12.60
2018-07-21T12:55:14.088Z,10.67
2018-07-21T12:57:42.477Z,12.80
2018-07-21T13:00:10.350Z,15.00
2018-07-21T13:02:39.455Z,10.77
2018-07-21T13:05:21.381Z,13.00
2018-07-21T13:07:49.265Z,15.97
2018-07-21T13:10:17.142Z,13.30
2018-07-21T13:12:50.873Z,14.73
2018-07-21T13:15:18.838Z,13.93
2018-07-21T13:17:46.824Z,15.77
2018-07-21T13:20:14.621Z,13.40
2018-07-21T13:22:42.449Z,14.63
2018-07-21T13:28:03.008Z,17.17
2018-07-21T13:30:31.047Z,17.17
2018-07-21T13:32:59.098Z,16.30
2018-07-21T13:35:27.092Z,13.67
2018-07-21T13:37:55.332Z,15.63
2018-07-21T13:40:24.492Z,13.13
2018-07-21T13:42:52.585Z,15.30
2018-07-21T13:45:21.352Z,14.90
2018-07-21T13:47:49.207Z,15.83
2018-07-21T13:50:17.014Z,16.80
2018-07-21T13:52:45.068Z,13.47
2018-07-21T13:55:12.942Z,14.00
2018-07-21T13:57:40.635Z,12.93
2018-07-21T14:00:08.544Z,14.97
2018-07-21T14:02:36.425Z,13.33
2018-07-21T14:05:08.861Z,12.13
2018-07-21T14:07:36.679Z,13.50
2018-07-21T14:10:05.014Z,12.30
2018-07-21T14:12:32.751Z,12.77
2018-07-21T14:15:01.681Z,12.67
2018-07-21T14:17:29.767Z,14.57
2018-07-21T14:19:57.708Z,14.70
2018-07-21T14:22:25.710Z,14.77
2018-07-21T14:24:55.743Z,13.07
2018-07-21T14:27:23.593Z,13.63
2018-07-21T14:29:51.588Z,12.90
2018-07-21T14:32:19.394Z,12.43
2018-07-21T14:34:47.205Z,13.57
2018-07-21T14:37:15.098Z,12.43
2018-07-21T14:39:43.105Z,13.27
2018-07-21T14:42:11.031Z,13.97
2018-07-21T14:44:38.968Z,11.03
2018-07-21T14:47:10.488Z,13.03
2018-07-21T14:49:38.302Z,13.67
2018-07-21T14:52:06.258Z,13.13
2018-07-21T14:54:34.169Z,13.77
2018-07-21T14:57:02.475Z,12.63
2018-07-21T14:59:30.420Z,12.57
2018-07-21T15:01:58.318Z,13.20
2018-07-21T15:04:26.287Z,11.83
2018-07-21T15:06:54.416Z,12.07
2018-07-21T15:09:22.360Z,13.10
2018-07-21T15:11:50.370Z,11.30
2018-07-21T15:14:18.334Z,13.43
2018-07-21T15:16:46.236Z,11.93
2018-07-21T15:19:14.060Z,12.60
2018-07-21T15:21:42.018Z,12.30
2018-07-21T15:24:09.931Z,11.30
2018-07-21T15:26:37.769Z,11.33
2018-07-21T15:29:05.750Z,12.47
2018-07-21T15:31:33.768Z,12.20
2018-07-21T15:34:01.929Z,13.10
2018-07-21T15:36:36.375Z,12.00
2018-07-21T15:39:06.903Z,11.17
2018-07-21T15:41:34.936Z,8.57
2018-07-21T15:44:02.874Z,13.17
2018-07-21T15:46:30.894Z,12.03
2018-07-21T15:48:59.095Z,10.23
2018-07-21T15:51:27.205Z,10.13
2018-07-21T15:53:55.298Z,11.63
2018-07-21T15:56:23.242Z,11.67
2018-07-21T15:58:53.275Z,12.87
2018-07-21T16:01:21.337Z,12.27
2018-07-21T16:03:49.673Z,9.60
2018-07-21T16:06:17.583Z,12.27
2018-07-21T16:08:45.611Z,13.47
2018-07-21T16:11:13.380Z,12.63
2018-07-21T16:13:41.397Z,11.87
2018-07-21T16:16:09.289Z,12.13
2018-07-21T16:18:37.129Z,11.07
2018-07-21T16:21:05.238Z,13.63
2018-07-21T16:23:33.094Z,13.03
2018-07-21T16:26:01.093Z,14.03
2018-07-21T16:28:31.038Z,13.37
2018-07-21T16:31:04.533Z,11.67
2018-07-21T16:33:32.407Z,9.07
2018-07-21T16:36:00.429Z,11.37
2018-07-21T16:38:28.534Z,12.57
2018-07-21T16:40:59.878Z,12.07
2018-07-21T16:43:27.643Z,11.30
2018-07-21T16:45:55.843Z,13.07
2018-07-21T16:48:24.510Z,10.40
2018-07-21T16:50:58.050Z,10.20
2018-07-21T16:53:25.918Z,10.37
2018-07-21T16:55:55.156Z,10.67
2018-07-21T16:58:24.132Z,8.63
2018-07-21T17:00:53.611Z,9.47
2018-07-21T17:03:22.573Z,12.17
2018-07-21T17:05:50.707Z,9.87
2018-07-21T17:08:18.712Z,8.80
2018-07-21T17:10:47.518Z,8.70
2018-07-21T17:13:15.488Z,11.60
2018-07-21T17:15:43.309Z,12.50
2018-07-21T17:18:17.416Z,13.10
2018-07-21T17:20:45.366Z,12.77
2018-07-21T17:23:13.266Z,12.73
2018-07-21T17:25:44.322Z,13.37
2018-07-21T17:28:12.226Z,11.73
2018-07-21T17:30:40.441Z,12.70
2018-07-21T17:33:08.470Z,13.77
2018-07-21T17:35:36.318Z,13.17
2018-07-21T17:38:04.394Z,13.80
2018-07-21T17:40:32.198Z,12.40
2018-07-21T17:43:03.660Z,13.37
2018-07-21T17:45:31.623Z,11.93
2018-07-21T17:47:59.654Z,13.20
2018-07-21T17:50:27.580Z,11.30
2018-07-21T17:52:55.826Z,12.77
2018-07-21T17:55:27.657Z,12.93
2018-07-21T17:57:56.230Z,14.80
2018-07-21T18:00:25.985Z,13.13
2018-07-21T18:02:55.046Z,14.60
2018-07-21T18:05:23.674Z,13.43
2018-07-21T18:07:52.324Z,14.10
2018-07-21T18:10:20.814Z,13.70
2018-07-21T18:12:49.021Z,12.47
2018-07-21T18:15:17.098Z,11.27
2018-07-21T18:17:44.942Z,12.87
2018-07-21T18:20:16.275Z,12.10
2018-07-21T18:22:44.188Z,11.20
2018-07-21T18:25:12.183Z,11.93
2018-07-21T18:27:40.917Z,11.33
2018-07-21T18:30:08.998Z,10.80
2018-07-21T18:32:41.217Z,11.43
2018-07-21T18:35:09.110Z,11.47
2018-07-21T18:37:37.135Z,11.17
2018-07-21T18:40:05.053Z,11.47
2018-07-21T18:42:33.346Z,11.03
2018-07-21T18:45:01.351Z,12.17
2018-07-21T18:47:29.826Z,11.33
2018-07-21T18:49:57.811Z,11.40
2018-07-21T18:52:26.161Z,12.40
2018-07-21T18:54:54.594Z,11.70
2018-07-21T18:57:24.053Z,13.40
2018-07-21T18:59:52.658Z,11.87
2018-07-21T19:02:21.291Z,12.87
2018-07-21T19:04:49.339Z,12.80
2018-07-21T19:07:17.272Z,13.93
2018-07-21T19:09:45.085Z,14.53
2018-07-21T19:12:18.455Z,14.67
2018-07-21T19:14:46.445Z,14.70
2018-07-21T19:17:14.181Z,14.77
2018-07-21T19:19:47.707Z,14.97
2018-07-21T19:22:15.601Z,15.97
2018-07-21T19:24:47.364Z,15.20
2018-07-21T19:27:20.755Z,15.50
2018-07-21T19:29:48.603Z,16.07
2018-07-21T19:32:21.944Z,15.57
2018-07-21T19:34:49.924Z,16.00
2018-07-21T19:37:23.319Z,15.20
2018-07-21T19:39:51.238Z,14.40
2018-07-21T19:42:19.025Z,14.97
2018-07-21T19:44:47.118Z,15.53
2018-07-21T19:47:15.013Z,15.13
2018-07-21T19:49:42.924Z,15.03
2018-07-21T19:52:10.803Z,15.17
2018-07-21T19:54:38.652Z,15.23
2018-07-21T19:57:06.689Z,15.30
2018-07-21T19:59:34.660Z,16.03
2018-07-21T20:02:13.696Z,15.30
2018-07-21T20:04:41.654Z,15.47
2018-07-21T20:07:09.537Z,15.47
2018-07-21T20:09:37.411Z,15.40
2018-07-21T20:12:05.465Z,15.63
2018-07-21T20:14:33.721Z,14.63
2018-07-21T20:17:01.597Z,16.47
2018-07-21T20:19:29.570Z,17.33
2018-07-21T20:21:57.581Z,17.87
2018-07-21T20:24:25.763Z,18.50
2018-07-21T20:26:53.966Z,18.33
2018-07-21T20:29:21.889Z,17.47
2018-07-21T20:31:49.830Z,17.27
2018-07-21T20:34:17.733Z,18.20
2018-07-21T20:36:45.540Z,17.03
2018-07-21T20:39:13.391Z,19.90
2018-07-21T20:41:41.440Z,21.57
2018-07-21T20:44:09.318Z,20.07
2018-07-21T20:46:37.281Z,22.70
2018-07-21T20:49:10.770Z,21.20
2018-07-21T20:51:38.838Z,17.67
2018-07-21T20:54:06.671Z,17.90
2018-07-21T20:56:34.490Z,19.10
2018-07-21T20:59:02.502Z,20.53
2018-07-21T21:01:31.220Z,21.37
2018-07-21T21:03:59.070Z,20.60
2018-07-21T21:06:26.992Z,19.87
2018-07-21T21:08:55.086Z,21.03
2018-07-21T21:11:22.984Z,22.13
2018-07-21T21:13:50.959Z,21.60
2018-07-21T21:16:18.844Z,21.10
2018-07-21T21:18:51.362Z,22.70
2018-07-21T21:21:20.327Z,22.67
2018-07-21T21:23:48.193Z,24.33
2018-07-21T21:26:16.266Z,23.37
2018-07-21T21:28:44.122Z,22.17
2018-07-21T21:31:12.031Z,22.57
2018-07-21T21:33:39.863Z,23.17
2018-07-21T21:36:07.730Z,21.97
2018-07-21T21:38:35.562Z,22.97
2018-07-21T21:41:03.385Z,23.80
2018-07-21T21:43:31.245Z,25.07
2018-07-21T21:45:59.126Z,25.33
2018-07-21T21:48:26.990Z,24.87
2018-07-21T21:50:54.787Z,22.57
2018-07-21T21:53:22.710Z,22.83
2018-07-21T21:55:51.049Z,22.37
2018-07-21T21:58:18.836Z,21.80
2018-07-21T22:01:10.527Z,21.90
2018-07-21T22:03:38.514Z,22.10
2018-07-21T22:06:06.315Z,23.20
2018-07-21T22:08:34.371Z,23.73
2018-07-21T22:11:04.722Z,22.77
2018-07-21T22:13:32.662Z,22.47
2018-07-21T22:16:00.878Z,24.23
2018-07-21T22:18:29.852Z,24.47
2018-07-21T22:20:57.885Z,22.57
2018-07-21T22:23:25.977Z,22.63
2018-07-21T22:25:54.002Z,22.37
2018-07-21T22:28:21.842Z,22.53
2018-07-21T22:30:50.050Z,25.60
2018-07-21T22:33:17.788Z,24.93
2018-07-21T22:35:45.557Z,21.07
2018-07-21T22:38:13.532Z,22.00
2018-07-21T22:40:41.679Z,20.87
2018-07-21T22:43:09.312Z,20.90
2018-07-21T22:45:37.135Z,21.40
2018-07-21T22:48:05.231Z,20.37
2018-07-21T22:50:33.064Z,22.20
2018-07-21T22:53:00.968Z,20.93
2018-07-21T22:55:28.740Z,24.00
2018-07-21T22:57:56.659Z,22.23
2018-07-21T23:00:24.666Z,22.37
2018-07-21T23:02:52.767Z,21.10
2018-07-21T23:05:20.669Z,21.00
2018-07-21T23:07:48.481Z,19.63
2018-07-21T23:10:19.320Z,18.67
2018-07-21T23:12:47.057Z,19.97
2018-07-21T23:15:31.575Z,21.17
2018-07-21T23:17:59.440Z,19.37
2018-07-21T23:20:27.589Z,22.60
2018-07-21T23:22:57.509Z,19.73
2018-07-21T23:25:25.382Z,18.47
2018-07-21T23:27:53.282Z,21.67
2018-07-21T23:30:21.316Z,20.17
2018-07-21T23:32:49.236Z,22.00
2018-07-21T23:35:17.080Z,20.23
2018-07-21T23:37:44.909Z,21.13
2018-07-21T23:40:12.792Z,23.30
2018-07-21T23:42:40.597Z,22.40
2018-07-21T23:45:08.468Z,20.37
2018-07-21T23:47:36.310Z,17.60
2018-07-21T23:50:04.320Z,16.63
2018-07-21T23:52:32.310Z,18.30
2018-07-21T23:55:00.134Z,18.30
2018-07-21T23:57:28.038Z,17.43
2018-07-21T23:59:55.946Z,18.67
